Americana — A8UZ5 — position and weather

sailwx.info

Track history (hours):
 
Tides and Currents Weather Stations Pressure Air Temp Water Temp Dewpoint Dewpoint Depression Visibility Wind Speed Wind Dir Waves Ship Positions

Americana

Last reported at 2014-Oct-20 21:05 UTC. Time now 2014-Oct-25 16:54 UTC.
Position N 46°31' E 030°58'.

Length 229 m; draft 7.1 m.

Type: Ship. MMSI: 636014578.

Date/timePositionNaut miles runAvg speedWind from/ knotsBaromVisibWave heightAir tempDewpointWater temp
2014-Oct-20 21:05N 46°31' E 030°58'0 0.1
2014-Oct-20 20:32N 46°31' E 030°58'0 0.0
2014-Oct-20 19:32N 46°31' E 030°58'0 0.0
2014-Oct-20 18:26N 46°31' E 030°58'1 1.4
2014-Oct-20 17:33N 46°30' E 030°57'  
2014-Oct-17 20:29N 41°31' E 029°27'1213.1
2014-Oct-17 19:33N 41°22' E 029°16'127 6.9
2014-Oct-17 01:16N 40°26' E 026°46'10 8.9
2014-Oct-17 00:09N 40°19' E 026°36'28 9.5
2014-Oct-16 21:12N 40°01' E 026°09'7 8.1
2014-Oct-16 20:22N 39°58' E 026°00'7 8.0
2014-Oct-16 19:32N 39°54' E 025°54'8 7.9
2014-Oct-16 18:33N 39°48' E 025°47'9 8.3
2014-Oct-16 17:30N 39°40' E 025°43'1010.5
2014-Oct-16 16:33N 39°30' E 025°43'7414.4
2014-Oct-16 11:24N 38°16' E 025°43'1714.7
2014-Oct-16 10:16N 37°59' E 025°43'913.5
2014-Oct-16 09:33N 37°49' E 025°43'1313.5
2014-Oct-16 08:34N 37°36' E 025°46'1313.3
2014-Oct-16 07:33N 37°24' E 025°52'1312.7
2014-Oct-16 06:34N 37°13' E 026°00'1212.2
2014-Oct-16 05:33N 37°02' E 026°08'1212.2
2014-Oct-16 04:33N 36°52' E 026°16'1312.9
2014-Oct-16 03:33N 36°43' E 026°27'1313.4
2014-Oct-16 02:33N 36°33' E 026°38'1313.2
2014-Oct-16 01:33N 36°23' E 026°49'1312.9
2014-Oct-16 00:33N 36°14' E 027°00'1312.7
2014-Oct-15 23:30N 36°04' E 027°11'1212.8
2014-Oct-15 22:34N 35°55' E 027°21'1612.3
2014-Oct-15 21:18N 35°43' E 027°35'  
Track history (hours):
 
Tides and Currents Weather Stations Pressure Air Temp Water Temp Dewpoint Dewpoint Depression Visibility Wind Speed Wind Dir Waves Ship Positions

Americana

Last reported at 2014-Oct-20 21:05 UTC. Time now 2014-Oct-25 16:54 UTC.
Position N 46°31' E 030°58'.

Length 229 m; draft 7.1 m.

Type: Ship. MMSI: 636014578.

Date/timePositionNaut miles runAvg speedWind from/ knotsBaromVisibWave heightAir tempDewpointWater temp
2014-Oct-20 21:05N 46°31' E 030°58'0 0.1
2014-Oct-20 20:32N 46°31' E 030°58'0 0.0
2014-Oct-20 19:32N 46°31' E 030°58'0 0.0
2014-Oct-20 18:26N 46°31' E 030°58'1 1.4
2014-Oct-20 17:33N 46°30' E 030°57'  
2014-Oct-17 20:29N 41°31' E 029°27'1213.1
2014-Oct-17 19:33N 41°22' E 029°16'127 6.9
2014-Oct-17 01:16N 40°26' E 026°46'10 8.9
2014-Oct-17 00:09N 40°19' E 026°36'28 9.5
2014-Oct-16 21:12N 40°01' E 026°09'7 8.1
2014-Oct-16 20:22N 39°58' E 026°00'7 8.0
2014-Oct-16 19:32N 39°54' E 025°54'8 7.9
2014-Oct-16 18:33N 39°48' E 025°47'9 8.3
2014-Oct-16 17:30N 39°40' E 025°43'1010.5
2014-Oct-16 16:33N 39°30' E 025°43'7414.4
2014-Oct-16 11:24N 38°16' E 025°43'1714.7
2014-Oct-16 10:16N 37°59' E 025°43'913.5
2014-Oct-16 09:33N 37°49' E 025°43'1313.5
2014-Oct-16 08:34N 37°36' E 025°46'1313.3
2014-Oct-16 07:33N 37°24' E 025°52'1312.7
2014-Oct-16 06:34N 37°13' E 026°00'1212.2
2014-Oct-16 05:33N 37°02' E 026°08'1212.2
2014-Oct-16 04:33N 36°52' E 026°16'1312.9
2014-Oct-16 03:33N 36°43' E 026°27'1313.4
2014-Oct-16 02:33N 36°33' E 026°38'1313.2
2014-Oct-16 01:33N 36°23' E 026°49'1312.9
2014-Oct-16 00:33N 36°14' E 027°00'1312.7
2014-Oct-15 23:30N 36°04' E 027°11'1212.8
2014-Oct-15 22:34N 35°55' E 027°21'1612.3
2014-Oct-15 21:18N 35°43' E 027°35'  

Dump ship's entire track history